Time;durP1;ratioP1;P1;durP2;ratioP2;P2;SDS_P1;SDS_P2;PMS_P1;PMS_P2;Temp;Humidity;BMP_temperature;BMP_pressure;BME280_temperature;BME280_humidity;BME280_pressure;Samples;Min_cycle;Max_cycle;Signal;HPM_P1;HPM_P2
2021/07/22 00:00:30;;;;;;;0.93;0.93;;;;;;;23.69;52.12;101044.31;6226467;23;20015;-74
2021/07/22 00:02:56;;;;;;;1.15;0.80;;;;;;;23.64;52.52;101049.28;6225386;23;20042;-75
2021/07/22 00:05:23;;;;;;;1.50;1.50;;;;;;;23.62;52.60;101051.63;6252691;23;20008;-75
2021/07/22 00:07:49;;;;;;;1.00;1.00;;;;;;;23.57;52.61;101043.44;6253492;23;20018;-75
2021/07/22 00:10:15;;;;;;;1.40;1.30;;;;;;;23.51;53.02;101051.22;6250466;23;19999;-74
2021/07/22 00:12:43;;;;;;;1.30;1.30;;;;;;;23.45;53.25;101050.59;6253439;23;20327;-74
2021/07/22 00:15:09;;;;;;;0.90;0.90;;;;;;;23.41;53.19;101043.22;6226689;23;20067;-73
2021/07/22 00:17:35;;;;;;;0.90;0.90;;;;;;;23.38;53.55;101044.72;6252090;23;20014;-73
2021/07/22 00:20:01;;;;;;;1.48;1.48;;;;;;;23.31;53.35;101045.25;6254359;23;20004;-74
2021/07/22 00:22:27;;;;;;;1.45;1.35;;;;;;;23.26;53.76;101047.41;6227837;23;20000;-73
2021/07/22 00:24:53;;;;;;;2.38;2.17;;;;;;;23.23;54.18;101048.09;6226298;23;20008;-73
2021/07/22 00:27:19;;;;;;;3.20;2.90;;;;;;;23.16;54.68;101051.44;6251651;23;20438;-73
2021/07/22 00:29:45;;;;;;;2.88;2.78;;;;;;;23.11;54.81;101044.03;6225962;23;20380;-72
2021/07/22 00:32:10;;;;;;;2.35;2.25;;;;;;;23.06;54.98;101047.00;6223232;23;20012;-74
2021/07/22 00:34:37;;;;;;;2.15;2.05;;;;;;;23.02;55.15;101048.84;6246347;23;20489;-75
2021/07/22 00:37:02;;;;;;;2.00;1.90;;;;;;;22.98;55.10;101050.66;6250998;23;20012;-73
2021/07/22 00:39:29;;;;;;;1.92;1.83;;;;;;;22.93;55.15;101045.28;6249803;23;20002;-74
2021/07/22 00:41:54;;;;;;;1.38;1.27;;;;;;;22.91;55.26;101044.78;6252214;23;20000;-74
2021/07/22 00:44:20;;;;;;;2.63;2.50;;;;;;;22.82;55.34;101042.88;6248895;23;20008;-73
2021/07/22 00:46:45;;;;;;;1.58;1.58;;;;;;;22.81;55.32;101052.38;6221394;23;20439;-74
2021/07/22 00:49:11;;;;;;;1.13;1.13;;;;;;;22.80;55.52;101056.31;6225207;23;20328;-74
2021/07/22 00:51:38;;;;;;;0.82;0.82;;;;;;;22.77;55.38;101051.41;6223584;23;20012;-74
2021/07/22 00:54:04;;;;;;;1.10;1.10;;;;;;;22.73;55.32;101050.44;6226570;23;20008;-75
2021/07/22 00:56:31;;;;;;;0.85;0.85;;;;;;;22.71;55.51;101052.75;6227658;23;20046;-74
2021/07/22 00:58:56;;;;;;;0.63;0.63;;;;;;;22.67;55.40;101055.34;6253761;23;20146;-76
2021/07/22 01:01:22;;;;;;;0.70;0.70;;;;;;;22.63;55.63;101050.78;6201432;23;20009;-76
2021/07/22 01:03:47;;;;;;;0.80;0.80;;;;;;;22.54;55.42;101050.81;6228872;23;20008;-75
2021/07/22 01:06:13;;;;;;;0.77;0.77;;;;;;;22.54;55.55;101044.44;6178027;23;20394;-75
2021/07/22 01:08:38;;;;;;;0.75;0.75;;;;;;;22.52;55.77;101055.09;6226138;23;20008;-74
2021/07/22 01:11:04;;;;;;;0.80;0.80;;;;;;;22.50;56.03;101052.63;6222306;23;20004;-72
2021/07/22 01:13:29;;;;;;;0.70;0.70;;;;;;;22.45;55.95;101053.63;6219413;23;20036;-74
2021/07/22 01:15:55;;;;;;;0.45;0.45;;;;;;;22.39;56.16;101040.22;6222935;23;20018;-73
2021/07/22 01:18:20;;;;;;;0.65;0.65;;;;;;;22.38;55.72;101047.75;6251102;23;20007;-74
2021/07/22 01:20:46;;;;;;;0.50;0.50;;;;;;;22.34;55.61;101044.00;6222713;23;20042;-73
2021/07/22 01:23:11;;;;;;;0.45;0.45;;;;;;;22.34;55.83;101044.00;6251417;23;20059;-75
2021/07/22 01:25:36;;;;;;;0.60;0.60;;;;;;;22.29;56.12;101047.72;6200139;23;20016;-76
2021/07/22 01:28:02;;;;;;;0.70;0.70;;;;;;;22.27;55.99;101043.66;6250157;23;20359;-74
2021/07/22 01:30:27;;;;;;;1.38;0.45;;;;;;;22.25;56.46;101043.16;6250321;23;20011;-77
2021/07/22 01:32:53;;;;;;;0.57;0.57;;;;;;;22.21;56.21;101040.22;6247518;23;20514;-76
2021/07/22 01:35:19;;;;;;;0.50;0.50;;;;;;;22.18;56.08;101034.47;6201845;23;20028;-75
2021/07/22 01:37:44;;;;;;;0.50;0.50;;;;;;;22.16;56.04;101045.16;6227636;23;20007;-76
2021/07/22 01:40:12;;;;;;;0.60;0.60;;;;;;;22.11;56.41;101037.78;6253756;23;20015;-76
2021/07/22 01:42:38;;;;;;;0.80;0.80;;;;;;;22.09;56.82;101043.69;6225225;23;20008;-76
2021/07/22 01:45:05;;;;;;;0.60;0.60;;;;;;;22.04;56.59;101038.28;6225175;23;20012;-77
2021/07/22 01:47:33;;;;;;;0.57;0.57;;;;;;;21.99;56.66;101038.44;6254425;23;20000;-76
2021/07/22 01:49:59;;;;;;;0.80;0.65;;;;;;;21.92;56.98;101036.16;6254160;23;20023;-76
2021/07/22 01:52:24;;;;;;;0.80;0.80;;;;;;;21.88;56.73;101037.13;6250975;23;20016;-77
2021/07/22 01:54:50;;;;;;;0.50;0.50;;;;;;;21.85;56.61;101037.81;6226608;23;20011;-77
2021/07/22 01:57:15;;;;;;;0.60;0.60;;;;;;;21.84;56.98;101045.31;6201257;23;20016;-77
2021/07/22 01:59:40;;;;;;;0.63;0.63;;;;;;;21.83;56.58;101042.84;6200107;23;20445;-76
2021/07/22 02:02:10;;;;;;;0.50;0.50;;;;;;;21.79;57.05;101040.72;6251768;23;20653;-77
2021/07/22 02:04:38;;;;;;;0.80;0.80;;;;;;;21.75;56.80;101039.75;6251526;23;20011;-77
2021/07/22 02:07:03;;;;;;;0.95;0.85;;;;;;;21.71;56.80;101038.78;6224579;23;20089;-77
2021/07/22 02:09:29;;;;;;;0.50;0.50;;;;;;;21.70;57.47;101039.91;6253650;23;20363;-76
2021/07/22 02:11:56;;;;;;;0.50;0.50;;;;;;;21.69;57.39;101037.47;6227981;23;20031;-76
2021/07/22 02:14:23;;;;;;;0.43;0.40;;;;;;;21.64;57.13;101038.44;6253557;23;20011;-76
2021/07/22 02:16:49;;;;;;;0.40;0.40;;;;;;;21.65;57.25;101042.03;6253488;23;20000;-77
2021/07/22 02:19:15;;;;;;;0.60;0.60;;;;;;;21.60;56.95;101037.47;6255716;23;20111;-76
2021/07/22 02:21:41;;;;;;;0.52;0.50;;;;;;;21.57;57.30;101038.13;6254417;23;20368;-76
2021/07/22 02:24:08;;;;;;;0.90;0.90;;;;;;;21.53;56.92;101037.13;6255906;23;20008;-76
2021/07/22 02:26:33;;;;;;;0.35;0.35;;;;;;;21.51;57.42;101033.84;6255019;23;20474;-76
2021/07/22 02:29:03;;;;;;;0.50;0.50;;;;;;;21.48;57.05;101035.28;6254298;23;20032;-76
2021/07/22 02:31:28;;;;;;;0.57;0.57;;;;;;;21.43;57.20;101033.47;6200755;23;20004;-77
2021/07/22 02:33:54;;;;;;;0.52;0.52;;;;;;;21.40;57.06;101034.13;6202192;23;20028;-78
2021/07/22 02:36:19;;;;;;;0.70;0.70;;;;;;;21.35;57.04;101037.06;6203623;23;20004;-75
2021/07/22 02:38:45;;;;;;;0.90;0.90;;;;;;;21.34;57.53;101040.19;6225338;23;20033;-77
2021/07/22 02:41:11;;;;;;;0.60;0.60;;;;;;;21.31;57.73;101038.84;6226037;23;20008;-74
2021/07/22 02:43:36;;;;;;;0.60;0.60;;;;;;;21.23;57.55;101034.09;6251629;23;20004;-76
2021/07/22 02:46:09;;;;;;;0.52;0.52;;;;;;;21.22;57.14;101035.25;6225442;23;20003;-75
2021/07/22 02:48:35;;;;;;;1.48;1.25;;;;;;;21.19;57.42;101039.47;6223935;23;20032;-75
2021/07/22 02:51:01;;;;;;;1.83;0.60;;;;;;;21.18;57.42;101035.06;6225060;23;20011;-75
2021/07/22 02:53:28;;;;;;;0.30;0.30;;;;;;;21.18;57.54;101037.03;6225365;23;20432;-77
2021/07/22 02:56:00;;;;;;;0.52;0.52;;;;;;;21.13;57.28;101040.78;6254721;23;20015;-76
2021/07/22 02:58:29;;;;;;;0.60;0.60;;;;;;;21.09;57.88;101040.59;6250231;23;20008;-77
2021/07/22 03:00:55;;;;;;;0.60;0.60;;;;;;;21.06;57.54;101046.81;6252818;23;20004;-77
2021/07/22 03:03:21;;;;;;;0.77;0.77;;;;;;;21.03;57.68;101043.84;6249539;23;20047;-75
2021/07/22 03:05:47;;;;;;;0.77;0.77;;;;;;;21.00;57.68;101044.50;6225644;23;20004;-75
2021/07/22 03:08:12;;;;;;;0.68;0.68;;;;;;;20.97;57.56;101043.19;6251953;23;20494;-76
2021/07/22 03:10:38;;;;;;;0.60;0.60;;;;;;;20.95;57.65;101045.44;6251738;23;20008;-75
2021/07/22 03:13:03;;;;;;;0.47;0.47;;;;;;;20.95;57.54;101045.44;6224290;23;20351;-75
2021/07/22 03:15:29;;;;;;;0.30;0.30;;;;;;;20.95;57.54;101051.00;6250950;23;20004;-77
2021/07/22 03:17:55;;;;;;;0.52;0.52;;;;;;;20.96;57.91;101044.31;6252385;23;20027;-75
2021/07/22 03:20:20;;;;;;;0.70;0.70;;;;;;;20.98;57.89;101049.56;6250002;23;20412;-75
2021/07/22 03:22:46;;;;;;;0.60;0.60;;;;;;;20.98;57.87;101050.34;6221951;23;20019;-76
2021/07/22 03:25:12;;;;;;;0.38;0.38;;;;;;;20.98;57.36;101052.34;6249001;23;20035;-75
2021/07/22 03:27:37;;;;;;;0.50;0.50;;;;;;;20.95;57.52;101045.44;6250631;23;20437;-73
2021/07/22 03:30:03;;;;;;;0.30;0.30;;;;;;;20.92;57.59;101046.09;6224943;23;20371;-74
2021/07/22 03:32:28;;;;;;;0.60;0.60;;;;;;;20.91;57.33;101059.19;6252196;23;20011;-75
2021/07/22 03:34:54;;;;;;;0.40;0.40;;;;;;;20.91;57.65;101058.38;6225079;23;20402;-75
2021/07/22 03:37:19;;;;;;;0.55;0.55;;;;;;;20.88;57.53;101056.22;6254671;23;20039;-76
2021/07/22 03:39:44;;;;;;;0.60;0.60;;;;;;;20.84;57.30;101055.25;6254788;23;20060;-75
2021/07/22 03:42:10;;;;;;;0.45;0.45;;;;;;;20.74;57.70;101048.81;6259719;23;20412;-75
2021/07/22 03:44:35;;;;;;;0.85;0.85;;;;;;;20.73;57.84;101049.97;6257736;23;20035;-76
2021/07/22 03:47:01;;;;;;;0.50;0.50;;;;;;;20.73;57.95;101049.13;6210987;23;20354;-76
2021/07/22 03:49:26;;;;;;;0.90;0.90;;;;;;;20.70;57.72;101049.75;6261189;23;20079;-77
2021/07/22 03:51:56;;;;;;;0.50;0.50;;;;;;;20.68;57.46;101050.09;6228299;23;20129;-75
2021/07/22 03:54:22;;;;;;;0.40;0.40;;;;;;;20.66;57.37;101046.81;6255101;23;20022;-76
2021/07/22 03:56:47;;;;;;;0.70;0.70;;;;;;;20.63;57.95;101047.41;6228146;23;20415;-76
2021/07/22 03:59:19;;;;;;;0.77;0.77;;;;;;;20.58;57.84;101044.78;6227466;23;20019;-75
2021/07/22 04:01:45;;;;;;;0.75;0.75;;;;;;;20.55;58.18;101042.63;6226377;23;20431;-76
2021/07/22 04:04:11;;;;;;;1.23;0.82;;;;;;;20.50;57.69;101049.16;6227223;23;20008;-75
2021/07/22 04:06:37;;;;;;;0.52;0.47;;;;;;;20.45;57.60;101054.03;6226048;23;20038;-76
2021/07/22 04:09:03;;;;;;;0.57;0.57;;;;;;;20.44;57.62;101046.81;6252320;23;20304;-75
2021/07/22 04:11:30;;;;;;;0.43;0.43;;;;;;;20.38;57.68;101046.13;6224568;23;20010;-76
2021/07/22 04:13:55;;;;;;;0.88;0.88;;;;;;;20.35;58.17;101049.53;6254598;23;20079;-75
2021/07/22 04:16:20;;;;;;;0.52;0.52;;;;;;;20.35;57.67;101046.75;6253143;23;20015;-77
2021/07/22 04:18:46;;;;;;;0.80;0.80;;;;;;;20.31;58.28;101048.53;6255111;23;20457;-76
2021/07/22 04:21:11;;;;;;;1.05;0.90;;;;;;;20.28;58.22;101044.44;6228403;23;20008;-78
2021/07/22 04:23:37;;;;;;;1.23;1.13;;;;;;;20.27;58.10;101053.91;6203210;23;20015;-78
2021/07/22 04:26:02;;;;;;;0.75;0.75;;;;;;;20.24;57.95;101054.53;6257948;23;20032;-76
2021/07/22 04:28:28;;;;;;;0.80;0.80;;;;;;;20.22;58.75;101057.63;6227329;23;20012;-76
2021/07/22 04:30:53;;;;;;;1.30;1.20;;;;;;;20.19;58.49;101054.66;6252900;23;20423;-76
2021/07/22 04:33:19;;;;;;;1.23;1.23;;;;;;;20.18;58.22;101061.34;6225561;22;20043;-76
2021/07/22 04:35:45;;;;;;;2.47;1.63;;;;;;;20.15;58.96;101053.66;6227843;23;20478;-75
2021/07/22 04:38:10;;;;;;;1.08;1.08;;;;;;;20.15;59.01;101059.19;6255144;23;20071;-76
2021/07/22 04:40:36;;;;;;;0.65;0.65;;;;;;;20.14;58.91;101061.16;6258026;23;20376;-78
2021/07/22 04:43:01;;;;;;;0.70;0.70;;;;;;;20.14;59.02;101060.34;6231443;23;20094;-76
2021/07/22 04:45:27;;;;;;;0.52;0.52;;;;;;;20.14;58.48;101063.13;6205231;23;20023;-76
2021/07/22 04:47:52;;;;;;;0.75;0.75;;;;;;;20.17;58.88;101068.06;6179585;23;20015;-77
2021/07/22 04:50:17;;;;;;;0.65;0.65;;;;;;;20.18;58.33;101067.72;6231469;23;20034;-77
2021/07/22 04:52:44;;;;;;;0.40;0.40;;;;;;;20.21;58.39;101071.84;6256773;23;20026;-76
2021/07/22 04:55:09;;;;;;;1.20;1.20;;;;;;;20.22;58.79;101067.91;6258488;23;20000;-78
2021/07/22 04:57:35;;;;;;;1.70;1.60;;;;;;;20.23;59.33;101073.16;6258109;23;20004;-78
2021/07/22 05:00:00;;;;;;;2.28;2.17;;;;;;;20.24;58.96;101065.66;6205978;23;20015;-78
2021/07/22 05:02:26;;;;;;;2.28;2.17;;;;;;;20.28;58.93;101071.38;6231006;23;20435;-78
2021/07/22 05:04:52;;;;;;;1.13;1.13;;;;;;;20.29;59.67;101067.47;6228510;23;20012;-77
2021/07/22 05:07:17;;;;;;;1.85;1.75;;;;;;;20.34;59.10;101067.34;6223090;23;19992;-75
2021/07/22 05:09:56;;;;;;;1.30;1.30;;;;;;;20.40;59.02;101066.91;6253518;23;20008;-75
2021/07/22 05:12:21;;;;;;;1.80;1.70;;;;;;;20.44;59.24;101074.59;6229869;23;19996;-76
2021/07/22 05:14:47;;;;;;;1.48;1.48;;;;;;;20.50;59.35;101078.88;6206257;23;20015;-74
2021/07/22 05:17:12;;;;;;;1.13;1.13;;;;;;;20.54;58.77;101079.88;6235709;23;20039;-76
2021/07/22 05:19:37;;;;;;;1.35;1.35;;;;;;;20.60;59.10;101083.34;6231962;23;20066;-76
2021/07/22 05:22:03;;;;;;;1.27;1.17;;;;;;;20.65;59.44;101081.25;6178703;23;20489;-77
2021/07/22 05:24:28;;;;;;;1.85;1.75;;;;;;;20.70;58.87;101086.69;6226775;23;20067;-77
2021/07/22 05:26:54;;;;;;;1.52;1.42;;;;;;;20.78;59.37;101089.84;6247721;23;20008;-78
2021/07/22 05:29:19;;;;;;;1.73;1.60;;;;;;;20.80;59.09;101080.06;6229376;23;20011;-78
2021/07/22 05:31:45;;;;;;;1.55;1.55;;;;;;;20.85;59.33;101079.09;6223065;23;20023;-78
2021/07/22 05:34:11;;;;;;;2.22;2.13;;;;;;;20.88;59.52;101073.72;6198106;23;20025;-78
2021/07/22 05:36:37;;;;;;;1.23;1.23;;;;;;;21.01;58.76;101087.81;6222127;23;20019;-78
2021/07/22 05:39:04;;;;;;;2.38;2.17;;;;;;;21.08;59.22;101093.75;6195776;23;20091;-76
2021/07/22 05:41:30;;;;;;;2.05;1.95;;;;;;;21.12;59.13;101082.81;6197961;23;20004;-77
2021/07/22 05:43:55;;;;;;;1.40;1.40;;;;;;;21.22;59.26;101093.66;6202527;23;20028;-77
2021/07/22 05:46:22;;;;;;;1.70;1.60;;;;;;;21.30;59.28;101089.25;6222520;23;20012;-75
2021/07/22 05:48:48;;;;;;;1.40;1.40;;;;;;;21.38;58.68;101094.84;6218838;23;20004;-73
2021/07/22 05:51:13;;;;;;;1.20;1.20;;;;;;;21.44;58.57;101101.88;6216219;23;20024;-74
2021/07/22 05:53:39;;;;;;;1.10;1.10;;;;;;;21.53;58.60;101087.22;6216070;23;20308;-73
2021/07/22 05:56:04;;;;;;;1.17;1.17;;;;;;;21.61;58.55;101095.56;6217537;23;20004;-73
2021/07/22 05:58:30;;;;;;;1.55;1.55;;;;;;;21.71;58.70;101093.59;6190435;23;20008;-74
2021/07/22 06:00:57;;;;;;;1.88;1.77;;;;;;;21.76;58.63;101091.50;6215521;23;20376;-75
2021/07/22 06:03:22;;;;;;;1.23;1.23;;;;;;;21.86;58.40;101089.53;6212313;23;20005;-75
2021/07/22 06:05:48;;;;;;;1.40;1.40;;;;;;;21.92;58.29;101088.25;6220622;23;20435;-75
2021/07/22 06:08:13;;;;;;;0.90;0.90;;;;;;;22.02;57.80;101090.69;6194842;23;20079;-76
2021/07/22 06:10:39;;;;;;;1.00;1.00;;;;;;;22.11;57.68;101090.69;6222172;23;20008;-75
2021/07/22 06:13:04;;;;;;;1.35;1.33;;;;;;;22.21;58.03;101089.53;6190272;23;20064;-75
2021/07/22 06:15:30;;;;;;;1.40;1.40;;;;;;;22.28;57.80;101095.41;6192154;23;20004;-75
2021/07/22 06:17:55;;;;;;;1.58;1.48;;;;;;;22.37;57.67;101093.50;6218269;23;20032;-74
2021/07/22 06:20:21;;;;;;;1.77;1.67;;;;;;;22.44;57.73;101092.97;6214017;23;20092;-75
2021/07/22 06:22:46;;;;;;;3.78;1.77;;;;;;;22.53;57.33;101090.16;6217982;23;20016;-74
2021/07/22 06:25:13;;;;;;;1.83;1.73;;;;;;;22.56;57.45;101089.50;6170348;23;20461;-75
2021/07/22 06:27:39;;;;;;;1.42;1.42;;;;;;;22.67;57.33;101096.38;6211539;23;20016;-75
2021/07/22 06:30:05;;;;;;;1.25;1.25;;;;;;;22.75;57.10;101091.91;6195527;23;20416;-74
2021/07/22 06:32:31;;;;;;;1.00;1.00;;;;;;;22.86;57.28;101092.38;6220677;23;20000;-75
2021/07/22 06:34:56;;;;;;;1.33;1.33;;;;;;;22.94;57.03;101088.72;6216612;23;20020;-75
2021/07/22 06:37:22;;;;;;;1.35;1.35;;;;;;;23.04;56.82;101095.91;6223367;23;20034;-76
2021/07/22 06:39:47;;;;;;;1.48;1.42;;;;;;;23.08;56.58;101103.25;6223488;23;20031;-75
2021/07/22 06:42:13;;;;;;;1.00;1.00;;;;;;;23.17;56.69;101097.69;6257832;23;20060;-74
2021/07/22 06:44:38;;;;;;;2.00;1.90;;;;;;;23.24;56.63;101091.59;6236451;23;20035;-74
2021/07/22 06:47:04;;;;;;;1.67;1.60;;;;;;;23.33;56.42;101100.72;6230055;23;20011;-74
2021/07/22 06:49:29;;;;;;;2.88;2.67;;;;;;;23.41;56.41;101102.66;6246910;23;20011;-75
2021/07/22 06:51:54;;;;;;;2.35;2.25;;;;;;;23.45;56.16;101100.81;6252012;23;20327;-76
2021/07/22 06:54:21;;;;;;;1.85;1.75;;;;;;;23.52;56.05;101098.31;6224839;23;20004;-74
2021/07/22 06:56:47;;;;;;;2.03;1.92;;;;;;;23.63;56.05;101095.13;6252265;23;20031;-75
2021/07/22 06:59:13;;;;;;;3.45;1.63;;;;;;;23.76;55.87;101099.63;6252803;23;20011;-75
2021/07/22 07:01:38;;;;;;;2.95;2.83;;;;;;;23.81;56.09;101098.59;6253444;23;20008;-75
2021/07/22 07:04:04;;;;;;;2.47;2.38;;;;;;;23.95;55.30;101099.19;6224423;23;20008;-75
2021/07/22 07:06:32;;;;;;;3.20;2.90;;;;;;;24.03;55.46;101103.91;6251158;23;20004;-75
2021/07/22 07:08:58;;;;;;;1.55;1.55;;;;;;;24.13;55.65;101093.47;6256091;23;20020;-75
2021/07/22 07:11:23;;;;;;;4.20;4.00;;;;;;;24.20;55.56;101094.53;6255790;23;20107;-76
2021/07/22 07:13:49;;;;;;;2.42;2.33;;;;;;;24.30;54.75;101100.84;6252908;23;20380;-73
2021/07/22 07:16:14;;;;;;;3.13;2.92;;;;;;;24.38;54.75;101099.97;6251149;23;20027;-75
2021/07/22 07:18:39;;;;;;;3.25;3.05;;;;;;;24.44;54.89;101092.97;6225597;23;20050;-72
2021/07/22 07:21:05;;;;;;;2.97;2.72;;;;;;;24.54;54.93;101098.13;6199852;23;20035;-74
2021/07/22 07:23:32;;;;;;;2.05;1.95;;;;;;;24.66;54.20;101099.38;6201398;23;20027;-74
2021/07/22 07:25:57;;;;;;;3.42;3.22;;;;;;;24.76;54.88;101098.13;6250705;23;20004;-75
2021/07/22 07:28:23;;;;;;;2.42;2.33;;;;;;;24.87;54.09;101086.13;6221667;23;20327;-73
2021/07/22 07:30:48;;;;;;;2.35;2.25;;;;;;;25.00;53.71;101083.31;6206028;23;20008;-73
2021/07/22 07:33:14;;;;;;;3.03;2.45;;;;;;;25.08;54.10;101094.41;6251635;22;20010;-73
2021/07/22 07:35:39;;;;;;;2.65;2.55;;;;;;;25.19;53.29;101093.94;6225662;23;20005;-74
2021/07/22 07:38:05;;;;;;;2.88;2.78;;;;;;;25.28;53.61;101094.66;6225462;23;20009;-73
2021/07/22 07:40:31;;;;;;;2.40;2.30;;;;;;;25.42;53.57;101094.31;6224582;23;20026;-73
2021/07/22 07:42:56;;;;;;;2.58;2.38;;;;;;;25.53;53.31;101095.47;6224270;23;20015;-73
2021/07/22 07:45:22;;;;;;;3.70;3.50;;;;;;;25.59;52.69;101091.25;6192227;23;20059;-72
2021/07/22 07:47:47;;;;;;;3.72;3.45;;;;;;;25.65;52.23;101093.84;6197860;23;20004;-73
2021/07/22 07:50:12;;;;;;;4.18;3.97;;;;;;;25.67;51.93;101097.91;6198254;23;20316;-73
2021/07/22 07:52:39;;;;;;;3.05;2.95;;;;;;;25.75;52.30;101098.94;6224015;23;20155;-72
2021/07/22 07:55:08;;;;;;;3.08;2.88;;;;;;;25.87;52.15;101096.09;6219581;23;20004;-73
2021/07/22 07:57:33;;;;;;;3.92;3.63;;;;;;;26.00;52.03;101094.13;6198736;23;20009;-73
2021/07/22 07:59:59;;;;;;;5.05;4.75;;;;;;;26.11;51.48;101094.44;6220973;23;20064;-72
2021/07/22 08:02:24;;;;;;;3.70;3.40;;;;;;;26.21;51.85;101093.94;6222829;23;20059;-72
2021/07/22 08:04:50;;;;;;;2.70;2.60;;;;;;;26.37;51.68;101101.56;6172525;23;20020;-73
2021/07/22 08:07:15;;;;;;;4.38;4.18;;;;;;;26.47;51.07;101095.44;6221366;23;20011;-73
2021/07/22 08:09:41;;;;;;;3.50;3.30;;;;;;;26.56;50.36;101098.91;6197588;23;20015;-73
2021/07/22 08:12:06;;;;;;;9.05;3.42;;;;;;;26.69;50.48;101090.44;6194705;23;20004;-75
2021/07/22 08:14:36;;;;;;;3.40;3.20;;;;;;;26.78;49.76;101093.88;6224963;23;20019;-74
2021/07/22 08:17:03;;;;;;;4.00;3.70;;;;;;;26.92;49.28;101090.63;6221244;23;20001;-73
2021/07/22 08:19:29;;;;;;;3.83;3.45;;;;;;;27.05;48.69;101096.97;6196119;23;20091;-73
2021/07/22 08:21:54;;;;;;;4.18;3.97;;;;;;;27.12;48.17;101092.34;6222170;23;20317;-73
2021/07/22 08:24:19;;;;;;;5.28;4.85;;;;;;;27.20;47.58;101093.31;6223317;23;20082;-73
2021/07/22 08:26:45;;;;;;;4.03;3.83;;;;;;;27.31;47.55;101097.22;6164894;23;20059;-73
2021/07/22 08:29:10;;;;;;;3.88;3.67;;;;;;;27.45;47.45;101098.75;6171717;23;20023;-73
2021/07/22 08:31:37;;;;;;;4.35;4.05;;;;;;;27.57;46.55;101101.47;6190837;23;20043;-72
2021/07/22 08:34:02;;;;;;;4.05;3.85;;;;;;;27.66;46.57;101093.63;6222745;22;20028;-73
2021/07/22 08:36:28;;;;;;;7.13;4.40;;;;;;;27.76;46.26;101097.03;6170892;23;20016;-73
2021/07/22 08:38:53;;;;;;;4.28;3.85;;;;;;;27.85;45.92;101089.22;6204240;23;20009;-74
2021/07/22 08:41:18;;;;;;;3.70;3.50;;;;;;;27.92;45.54;101095.00;6208337;23;20016;-74
2021/07/22 08:43:48;;;;;;;4.10;3.90;;;;;;;28.01;44.98;101103.25;6235263;23;20004;-73
2021/07/22 08:46:14;;;;;;;3.60;3.47;;;;;;;28.11;44.63;101101.81;6233331;23;20023;-73
2021/07/22 08:48:40;;;;;;;4.30;4.00;;;;;;;28.15;44.40;101102.72;6234982;23;19992;-74
2021/07/22 08:51:06;;;;;;;4.80;4.45;;;;;;;28.19;44.20;101097.97;6208279;23;20009;-73
2021/07/22 08:53:31;;;;;;;5.00;4.70;;;;;;;28.24;44.14;101100.50;6232709;23;20093;-73
2021/07/22 08:55:59;;;;;;;4.65;4.45;;;;;;;28.32;44.00;101099.44;6234724;23;20061;-73
2021/07/22 08:58:27;;;;;;;4.55;4.07;;;;;;;28.37;43.97;101104.78;6225942;23;20012;-73
2021/07/22 09:00:54;;;;;;;4.40;4.20;;;;;;;28.49;44.08;101100.16;6195667;23;20319;-72
2021/07/22 09:03:19;;;;;;;5.35;5.03;;;;;;;28.64;43.83;101096.47;6196307;23;20036;-73
2021/07/22 09:05:45;;;;;;;4.45;4.00;;;;;;;28.73;43.52;101091.41;6198786;23;20005;-73
2021/07/22 09:08:10;;;;;;;5.85;4.15;;;;;;;28.84;43.52;101094.41;6195667;23;20009;-73
2021/07/22 09:10:35;;;;;;;4.03;3.83;;;;;;;29.00;43.15;101097.09;6200683;23;20309;-72
2021/07/22 09:13:01;;;;;;;4.60;3.03;;;;;;;29.15;43.21;101097.34;6170087;23;20004;-73
2021/07/22 09:15:36;;;;;;;3.85;3.65;;;;;;;29.27;42.85;101096.34;6194494;23;19996;-73
2021/07/22 09:18:38;;;;;;;4.15;3.95;;;;;;;29.47;41.61;101102.66;6220601;23;20001;-73
2021/07/22 09:21:24;;;;;;;4.15;3.95;;;;;;;29.48;42.23;101109.94;6144850;23;20001;-73
2021/07/22 09:24:08;;;;;;;;;;;;;;;29.69;41.52;101110.25;6189518;23;20051;-72
2021/07/22 09:26:36;;;;;;;5.32;4.93;;;;;;;29.61;41.44;101108.50;6223032;23;19911;-73
2021/07/22 09:29:03;;;;;;;4.47;4.25;;;;;;;29.63;41.59;101110.94;6216914;23;20004;-73
2021/07/22 09:31:29;;;;;;;4.13;3.80;;;;;;;29.71;41.63;101107.84;6219703;23;20004;-73
2021/07/22 09:33:55;;;;;;;3.63;3.42;;;;;;;29.83;41.68;101106.81;6204930;23;20477;-73
2021/07/22 09:36:20;;;;;;;4.97;4.78;;;;;;;29.95;40.99;101114.25;6251418;23;20011;-73
2021/07/22 09:38:46;;;;;;;5.00;4.60;;;;;;;29.99;40.48;101103.81;6253744;23;20018;-74
2021/07/22 09:41:22;;;;;;;4.03;3.83;;;;;;;30.02;40.17;101105.06;6252707;23;20020;-73
2021/07/22 09:43:47;;;;;;;4.80;4.32;;;;;;;30.01;40.67;101101.44;6251418;23;20009;-73
2021/07/22 09:46:14;;;;;;;4.10;3.80;;;;;;;30.14;40.98;101110.47;6250364;23;20020;-72
2021/07/22 09:49:10;;;;;;;4.90;3.83;;;;;;;30.51;40.18;101108.91;6251582;23;20047;-73
2021/07/22 09:51:37;;;;;;;4.15;3.95;;;;;;;30.55;39.78;101109.72;6224821;23;20001;-73
2021/07/22 09:54:07;;;;;;;8.38;3.92;;;;;;;30.66;39.94;101112.66;6222331;23;20059;-73
2021/07/22 09:56:37;;;;;;;3.70;3.50;;;;;;;30.83;39.00;101099.94;6251255;23;20000;-74
2021/07/22 09:59:02;;;;;;;4.35;4.15;;;;;;;31.06;38.95;101097.75;6250962;23;19999;-72
2021/07/22 10:01:30;;;;;;;4.00;3.72;;;;;;;31.56;38.59;101099.31;6252382;23;20035;-73
2021/07/22 10:03:57;;;;;;;4.50;4.22;;;;;;;32.18;36.95;101096.41;6249178;23;20029;-73
2021/07/22 10:06:24;;;;;;;5.13;4.82;;;;;;;32.74;35.92;101104.66;6225097;23;20004;-73
2021/07/22 10:08:49;;;;;;;5.32;5.03;;;;;;;33.38;35.11;101111.53;6224069;23;20037;-73
2021/07/22 10:11:16;;;;;;;5.55;4.68;;;;;;;34.10;34.27;101102.84;6251768;23;20004;-74
2021/07/22 10:13:44;;;;;;;4.10;3.75;;;;;;;34.84;34.03;101105.66;6225117;23;20082;-73
2021/07/22 10:16:14;;;;;;;6.38;3.88;;;;;;;35.86;33.44;101103.47;6243087;23;20047;-73
2021/07/22 10:18:49;;;;;;;3.70;3.50;;;;;;;37.00;32.28;101108.81;6225034;23;20330;-74
2021/07/22 10:21:15;;;;;;;5.07;4.63;;;;;;;37.88;30.23;101111.66;6248803;23;20004;-73
2021/07/22 10:23:42;;;;;;;5.82;5.43;;;;;;;38.42;27.74;101113.34;6249807;23;20004;-74
2021/07/22 10:26:08;;;;;;;4.93;4.60;;;;;;;39.05;27.78;101108.63;6225077;23;20035;-74
2021/07/22 10:28:34;;;;;;;3.10;3.00;;;;;;;39.84;27.63;101114.25;6225189;23;20031;-74
2021/07/22 10:31:06;;;;;;;3.80;3.58;;;;;;;40.51;25.52;101106.94;6249298;23;20434;-74
2021/07/22 10:33:34;;;;;;;5.50;3.20;;;;;;;40.87;25.36;101105.78;6224344;22;20335;-73
2021/07/22 10:36:00;;;;;;;2.78;2.67;;;;;;;41.69;25.40;101105.75;6250958;23;20043;-73
2021/07/22 10:38:45;;;;;;;5.72;2.88;;;;;;;42.56;23.39;101111.84;6250868;23;20003;-74
2021/07/22 10:41:30;;;;;;;3.30;3.10;;;;;;;43.03;22.16;101117.75;6250764;23;20004;-73
2021/07/22 10:43:55;;;;;;;4.43;3.25;;;;;;;43.18;21.72;101106.41;6250489;23;20043;-74
2021/07/22 10:46:21;;;;;;;3.05;2.85;;;;;;;43.70;21.05;101115.22;6199241;23;20012;-73
2021/07/22 10:48:47;;;;;;;3.35;3.05;;;;;;;44.12;20.67;101111.66;6224077;23;20038;-74
2021/07/22 10:51:16;;;;;;;2.60;2.40;;;;;;;44.64;20.95;101111.59;6252296;23;20004;-72
2021/07/22 10:53:42;;;;;;;2.45;2.35;;;;;;;45.32;20.13;101101.56;6231750;23;20442;-74
2021/07/22 10:56:26;;;;;;;3.00;2.90;;;;;;;45.86;19.36;101104.44;6259733;23;20011;-73
2021/07/22 10:58:57;;;;;;;3.40;3.30;;;;;;;46.05;18.12;101104.25;6250118;23;20138;-73
2021/07/22 11:01:49;;;;;;;3.53;3.30;;;;;;;46.20;17.19;101099.25;6252677;23;20004;-73
2021/07/22 11:04:23;;;;;;;2.80;2.60;;;;;;;46.27;17.49;101098.84;6251677;23;20000;-73
2021/07/22 11:07:02;;;;;;;2.97;2.78;;;;;;;46.32;16.60;101088.66;6222282;23;20004;-74
2021/07/22 11:09:47;;;;;;;3.85;3.63;;;;;;;45.09;17.19;101091.63;6195222;23;20090;-76
2021/07/22 11:12:45;;;;;;;2.55;2.40;;;;;;;43.79;18.16;101095.06;6241654;23;20062;-72
2021/07/22 11:15:46;;;;;;;3.22;3.03;;;;;;;42.49;18.92;101100.63;6232957;23;20026;-73
2021/07/22 11:18:40;;;;;;;6.38;4.20;;;;;;;40.89;19.51;101081.16;6200234;23;20095;-73
2021/07/22 11:21:07;;;;;;;5.40;5.10;;;;;;;39.76;20.79;101088.72;6215408;23;20134;-72
2021/07/22 11:23:33;;;;;;;5.30;4.97;;;;;;;38.79;22.27;101079.88;6245319;23;20005;-72